Terminal Aerodrome Forecast
Issued by NWS

Home | Current Version | Previous Version | Text Only | Print | Product List | Glossary On
Versions: 1 2 3 4 5 6 7 8 9 10 11 12 13 14 15 16 17
000
FTUS44 KHGX 311127
TAFLBX
TAF
KLBX 311127Z 3112/0112 00000KT P6SM FEW009 SCT250
      TEMPO 3112/3114 3SM BR SCT005
     FM311500 17005KT P6SM SCT030 SCT150
     FM311800 15010KT P6SM VCTS SCT040CB BKN150
     FM010100 15005KT P6SM FEW025 BKN250
     FM010800 16003KT 4SM BR BKN025=

USA.gov is the U.S. government's official web portal to all federal, state and local government web resources and services.